Arnett, TX

5:57 PM CDT on May 30, 2015 (GMT -0500)
Rhudys on Cedar Ridge | | Change Station
CLOSE
Current Station
Personal Weather Station
Location: Gatesville, TX
Elevation: 1043 ft
Nearby Weather Stations
Active Advisory: Flood Warning Active Notice: Public Information Statement

Elev 1043 ft 31.45 °N, 97.70 °W | Updated 21 seconds ago

Partly Cloudy
Partly Cloudy
79.5 °F
Feels Like 82 °F
N
5.8
Wind Variable Wind from NE
Gusts 5.8 mph

Today
High -- | Low -- °F
--% Chance of Precip.
Yesterday
High -- | Low -- °F
Precip. -- in
6:27 AM 8:29 PM
Waxing Gibbous, 92% visible
Pressure 30.06 in
Visibility 10.0 miles
Clouds Clear
Heat Index 82 °F
Dew Point 67 °F
Humidity 65%
Rainfall 0.11 in
Snow Depth Not available.
UV 4 out of 12
Pollen 2.70 out of 12
Air Quality Not available.
Flu Activity Local Activity
METAR KGOP 302235Z AUTO 02009KT 10SM CLR 27/17 A3006 RMK AO2

More Conditions Fewer Conditions

Pressure 30.06 in
Visibility 10.0 miles
Clouds Clear
Heat Index 82 °F
Dew Point 67 °F
Humidity 65%
Rainfall 0.11 in
Snow Depth Not available.
UV 4 out of 12
Pollen 2.70 out of 12
Air Quality Not available.
Flu Activity Local Activity
METAR KGOP 302235Z AUTO 02009KT 10SM CLR 27/17 A3006 RMK AO2

More Conditions Fewer Conditions

Nowcast | as of 4:31 PM CDT on May 30, 2015

Scattered showers and thunderstorms southeast of a Bonham to Cleburne line will continue to move southeast at 20 mph. Cloud to ground lightning and brief heavy rain will accompany some of these storms.

×

10-Day Weather Forecast

Almanac

Astronomy

May. 30, 2015 Rise Set
Actual Time
Civil Twilight
Nautical Twilight
Astronomical Twilight
Moon
Length of Visible Light
Length of Day
Tomorrow will be .
, % of the Moon is Illuminated

Today's Extremes

State Highs State Lows

Community

WunderPhotos

Upload Photos

1,825,609 photos uploaded!

WunderBlogs® & News

Nearby

Air Quality

  Air Quality AQ Index Pollutant
Not available.

Snow Depth

Station Depth Elevation

Earthquake Activity

City Distance Mag. Time & Date
Minimum magnitude displayed is 2.5.

Coastal Water Temperatures

Place Temperature

Stations

Nearby Weather Stations

Station Location Temp. Windchill Dew Point Humidity Wind Precip. Elev Updated Type
                   
Flood Warning
Statement as of 4:00 PM CDT on May 30, 2015

... Observed flooding increased from minor to moderate severity...

The Flood Warning continues for
the Leon River at Gatesville.
* Until Thursday morning... or until the warning is cancelled.
* At 0345 PM Saturday the stage was 28.09 feet.
* Flood stage is 22.0 feet.
* Moderate flooding is occurring and moderate flooding is forecast.
* Forecast... the river will continue rising to a crest near 28.5 feet
by Sunday after midnight. The river should fall below flood stage
Wednesday evening.
* At 28 feet, moderate overbank flooding will occur near the Highway
bridge.


Lat... Lon 3147 9781 3138 9778 3138 9767 3148 9769